sensor_id;sensor_type;location;lat;lon;timestamp;pressure;altitude;pressure_sealevel;temperature;humidity
77110;BME280;66062;52.464;16.922;2023-06-14T00:00:31;100840.91;;;13.74;98.51
77110;BME280;66062;52.464;16.922;2023-06-14T00:02:56;100829.84;;;13.77;97.84
77110;BME280;66062;52.464;16.922;2023-06-14T00:05:22;100836.84;;;13.69;98.21
77110;BME280;66062;52.464;16.922;2023-06-14T00:07:48;100835.56;;;13.56;98.84
77110;BME280;66062;52.464;16.922;2023-06-14T00:10:15;100835.38;;;13.57;99.29
77110;BME280;66062;52.464;16.922;2023-06-14T00:12:41;100836.31;;;13.48;99.73
77110;BME280;66062;52.464;16.922;2023-06-14T00:15:07;100836.00;;;13.51;99.46
77110;BME280;66062;52.464;16.922;2023-06-14T00:17:32;100836.47;;;13.64;99.03
77110;BME280;66062;52.464;16.922;2023-06-14T00:19:59;100831.88;;;13.75;97.99
77110;BME280;66062;52.464;16.922;2023-06-14T00:22:25;100833.22;;;13.79;97.52
77110;BME280;66062;52.464;16.922;2023-06-14T00:24:51;100826.50;;;13.75;97.20
77110;BME280;66062;52.464;16.922;2023-06-14T00:27:17;100830.88;;;13.76;97.10
77110;BME280;66062;52.464;16.922;2023-06-14T00:29:42;100831.25;;;13.81;96.79
77110;BME280;66062;52.464;16.922;2023-06-14T00:32:08;100820.31;;;14.00;95.51
77110;BME280;66062;52.464;16.922;2023-06-14T00:34:34;100828.56;;;13.81;97.03
77110;BME280;66062;52.464;16.922;2023-06-14T00:36:59;100833.00;;;13.72;97.29
77110;BME280;66062;52.464;16.922;2023-06-14T00:39:25;100835.44;;;13.83;97.47
77110;BME280;66062;52.464;16.922;2023-06-14T00:41:50;100831.53;;;13.78;97.90
77110;BME280;66062;52.464;16.922;2023-06-14T00:44:17;100837.13;;;13.84;97.40
77110;BME280;66062;52.464;16.922;2023-06-14T00:46:44;100834.94;;;13.80;97.72
77110;BME280;66062;52.464;16.922;2023-06-14T00:49:10;100828.81;;;13.69;98.75
77110;BME280;66062;52.464;16.922;2023-06-14T00:51:36;100827.91;;;13.87;97.90
77110;BME280;66062;52.464;16.922;2023-06-14T00:54:02;100834.16;;;13.69;98.56
77110;BME280;66062;52.464;16.922;2023-06-14T00:56:28;100835.69;;;13.72;98.86
77110;BME280;66062;52.464;16.922;2023-06-14T00:58:56;100832.16;;;13.71;99.62
77110;BME280;66062;52.464;16.922;2023-06-14T01:01:21;100829.84;;;13.77;99.14
77110;BME280;66062;52.464;16.922;2023-06-14T01:03:47;100831.88;;;13.75;99.32
77110;BME280;66062;52.464;16.922;2023-06-14T01:06:25;100836.53;;;13.73;100.00
77110;BME280;66062;52.464;16.922;2023-06-14T01:09:15;100841.38;;;13.69;100.00
77110;BME280;66062;52.464;16.922;2023-06-14T01:11:57;100834.63;;;13.65;100.00
77110;BME280;66062;52.464;16.922;2023-06-14T01:14:25;100828.81;;;13.69;100.00
77110;BME280;66062;52.464;16.922;2023-06-14T01:16:53;100829.41;;;13.63;100.00
77110;BME280;66062;52.464;16.922;2023-06-14T01:19:20;100822.69;;;13.59;100.00
77110;BME280;66062;52.464;16.922;2023-06-14T01:21:48;100826.88;;;13.62;100.00
77110;BME280;66062;52.464;16.922;2023-06-14T01:24:16;100820.69;;;13.44;100.00
77110;BME280;66062;52.464;16.922;2023-06-14T01:26:41;100825.13;;;13.53;100.00
77110;BME280;66062;52.464;16.922;2023-06-14T01:29:11;100819.47;;;13.38;100.00
77110;BME280;66062;52.464;16.922;2023-06-14T01:31:38;100815.78;;;13.39;100.00
77110;BME280;66062;52.464;16.922;2023-06-14T01:34:07;100821.00;;;13.41;100.00
77110;BME280;66062;52.464;16.922;2023-06-14T01:36:33;100808.28;;;13.25;100.00
77110;BME280;66062;52.464;16.922;2023-06-14T01:39:01;100798.75;;;13.13;100.00
77110;BME280;66062;52.464;16.922;2023-06-14T01:41:28;100798.34;;;13.08;100.00
77110;BME280;66062;52.464;16.922;2023-06-14T01:43:54;100802.44;;;13.12;100.00
77110;BME280;66062;52.464;16.922;2023-06-14T01:46:21;100805.13;;;12.84;100.00
77110;BME280;66062;52.464;16.922;2023-06-14T01:48:47;100798.66;;;12.77;100.00
77110;BME280;66062;52.464;16.922;2023-06-14T01:51:12;100803.22;;;12.67;100.00
77110;BME280;66062;52.464;16.922;2023-06-14T01:53:38;100801.25;;;12.69;100.00
77110;BME280;66062;52.464;16.922;2023-06-14T01:56:03;100796.13;;;12.76;100.00
77110;BME280;66062;52.464;16.922;2023-06-14T01:58:29;100793.72;;;12.82;100.00
77110;BME280;66062;52.464;16.922;2023-06-14T02:00:54;100797.38;;;12.81;100.00
77110;BME280;66062;52.464;16.922;2023-06-14T02:03:23;100796.84;;;12.96;100.00
77110;BME280;66062;52.464;16.922;2023-06-14T02:05:49;100787.25;;;13.03;100.00
77110;BME280;66062;52.464;16.922;2023-06-14T02:08:15;100791.16;;;13.08;100.00
77110;BME280;66062;52.464;16.922;2023-06-14T02:10:40;100791.69;;;12.94;100.00
77110;BME280;66062;52.464;16.922;2023-06-14T02:13:06;100787.56;;;13.00;100.00
77110;BME280;66062;52.464;16.922;2023-06-14T02:15:31;100793.41;;;13.13;100.00
77110;BME280;66062;52.464;16.922;2023-06-14T02:18:00;100795.28;;;13.03;100.00
77110;BME280;66062;52.464;16.922;2023-06-14T02:20:26;100797.16;;;12.93;100.00
77110;BME280;66062;52.464;16.922;2023-06-14T02:22:52;100792.13;;;12.90;100.00
77110;BME280;66062;52.464;16.922;2023-06-14T02:25:17;100803.66;;;12.90;100.00
77110;BME280;66062;52.464;16.922;2023-06-14T02:27:43;100800.31;;;12.88;100.00
77110;BME280;66062;52.464;16.922;2023-06-14T02:30:08;100799.78;;;13.02;100.00
77110;BME280;66062;52.464;16.922;2023-06-14T02:32:34;100802.72;;;13.09;100.00
77110;BME280;66062;52.464;16.922;2023-06-14T02:35:01;100791.34;;;13.24;100.00
77110;BME280;66062;52.464;16.922;2023-06-14T02:37:26;100787.56;;;13.00;100.00
77110;BME280;66062;52.464;16.922;2023-06-14T02:39:53;100797.44;;;12.99;100.00
77110;BME280;66062;52.464;16.922;2023-06-14T02:42:18;100799.53;;;12.96;100.00
77110;BME280;66062;52.464;16.922;2023-06-14T02:44:43;100799.84;;;12.93;100.00
77110;BME280;66062;52.464;16.922;2023-06-14T02:47:10;100798.75;;;12.85;100.00
77110;BME280;66062;52.464;16.922;2023-06-14T02:49:35;100799.00;;;12.92;100.00
77110;BME280;66062;52.464;16.922;2023-06-14T02:52:01;100810.97;;;12.98;100.00
77110;BME280;66062;52.464;16.922;2023-06-14T02:54:27;100811.56;;;12.92;100.00
77110;BME280;66062;52.464;16.922;2023-06-14T02:56:53;100813.25;;;12.93;100.00
77110;BME280;66062;52.464;16.922;2023-06-14T02:59:18;100809.72;;;13.19;100.00
77110;BME280;66062;52.464;16.922;2023-06-14T03:01:46;100804.19;;;13.21;100.00
77110;BME280;66062;52.464;16.922;2023-06-14T03:04:12;100808.56;;;13.22;100.00
77110;BME280;66062;52.464;16.922;2023-06-14T03:06:37;100805.22;;;13.20;100.00
77110;BME280;66062;52.464;16.922;2023-06-14T03:09:05;100790.44;;;13.34;100.00
77110;BME280;66062;52.464;16.922;2023-06-14T03:11:31;100793.34;;;13.40;100.00
77110;BME280;66062;52.464;16.922;2023-06-14T03:13:57;100803.13;;;13.14;100.00
77110;BME280;66062;52.464;16.922;2023-06-14T03:16:23;100802.19;;;13.05;100.00
77110;BME280;66062;52.464;16.922;2023-06-14T03:18:52;100800.38;;;13.23;100.00
77110;BME280;66062;52.464;16.922;2023-06-14T03:21:21;100799.56;;;13.41;100.00
77110;BME280;66062;52.464;16.922;2023-06-14T03:23:47;100795.81;;;13.06;100.00
77110;BME280;66062;52.464;16.922;2023-06-14T03:26:14;100799.94;;;13.01;100.00
77110;BME280;66062;52.464;16.922;2023-06-14T03:28:40;100800.25;;;12.98;100.00
77110;BME280;66062;52.464;16.922;2023-06-14T03:31:07;100810.91;;;13.07;100.00
77110;BME280;66062;52.464;16.922;2023-06-14T03:33:34;100810.19;;;13.15;100.00
77110;BME280;66062;52.464;16.922;2023-06-14T03:35:59;100816.72;;;13.30;100.00
77110;BME280;66062;52.464;16.922;2023-06-14T03:38:25;100823.72;;;13.31;100.00
77110;BME280;66062;52.464;16.922;2023-06-14T03:40:50;100819.88;;;13.16;100.00
77110;BME280;66062;52.464;16.922;2023-06-14T03:43:16;100823.72;;;13.31;100.00
77110;BME280;66062;52.464;16.922;2023-06-14T03:45:41;100810.72;;;13.18;100.00
77110;BME280;66062;52.464;16.922;2023-06-14T03:48:08;100824.72;;;13.12;100.00
77110;BME280;66062;52.464;16.922;2023-06-14T03:50:34;100823.34;;;13.26;100.00
77110;BME280;66062;52.464;16.922;2023-06-14T03:53:00;100816.47;;;13.23;100.00
77110;BME280;66062;52.464;16.922;2023-06-14T03:55:26;100818.72;;;13.46;100.00
77110;BME280;66062;52.464;16.922;2023-06-14T03:57:52;100822.97;;;13.39;100.00
77110;BME280;66062;52.464;16.922;2023-06-14T04:00:18;100823.13;;;13.37;100.00
77110;BME280;66062;52.464;16.922;2023-06-14T04:02:44;100823.91;;;13.47;100.00
77110;BME280;66062;52.464;16.922;2023-06-14T04:05:09;100829.94;;;13.67;100.00
77110;BME280;66062;52.464;16.922;2023-06-14T04:07:35;100834.69;;;13.38;100.00
77110;BME280;66062;52.464;16.922;2023-06-14T04:10:11;100830.25;;;13.46;100.00
77110;BME280;66062;52.464;16.922;2023-06-14T04:12:36;100837.69;;;13.52;100.00
77110;BME280;66062;52.464;16.922;2023-06-14T04:15:02;100837.63;;;13.44;100.00
77110;BME280;66062;52.464;16.922;2023-06-14T04:17:29;100829.56;;;13.44;100.00
77110;BME280;66062;52.464;16.922;2023-06-14T04:19:54;100840.91;;;13.38;100.00
77110;BME280;66062;52.464;16.922;2023-06-14T04:22:20;100838.16;;;13.65;100.00
77110;BME280;66062;52.464;16.922;2023-06-14T04:24:45;100843.06;;;13.52;100.00
77110;BME280;66062;52.464;16.922;2023-06-14T04:27:11;100844.75;;;13.53;100.00
77110;BME280;66062;52.464;16.922;2023-06-14T04:29:36;100835.38;;;13.57;100.00
77110;BME280;66062;52.464;16.922;2023-06-14T04:32:02;100840.84;;;13.65;100.00
77110;BME280;66062;52.464;16.922;2023-06-14T04:34:28;100836.31;;;13.48;100.00
77110;BME280;66062;52.464;16.922;2023-06-14T04:37:00;100833.19;;;13.70;100.00
77110;BME280;66062;52.464;16.922;2023-06-14T04:39:26;100839.63;;;13.60;100.00
77110;BME280;66062;52.464;16.922;2023-06-14T04:41:52;100836.72;;;13.71;100.00
77110;BME280;66062;52.464;16.922;2023-06-14T04:44:22;100831.19;;;13.55;100.00
77110;BME280;66062;52.464;16.922;2023-06-14T04:46:55;100837.31;;;13.65;100.00
77110;BME280;66062;52.464;16.922;2023-06-14T04:49:21;100840.06;;;13.91;100.00
77110;BME280;66062;52.464;16.922;2023-06-14T04:51:48;100842.28;;;13.78;100.00
77110;BME280;66062;52.464;16.922;2023-06-14T04:54:23;100853.63;;;13.71;100.00
77110;BME280;66062;52.464;16.922;2023-06-14T04:56:50;100848.09;;;13.73;100.00
77110;BME280;66062;52.464;16.922;2023-06-14T04:59:16;100851.25;;;13.86;100.00
77110;BME280;66062;52.464;16.922;2023-06-14T05:01:42;100854.88;;;14.03;99.88
77110;BME280;66062;52.464;16.922;2023-06-14T05:04:13;100854.22;;;14.01;99.91
77110;BME280;66062;52.464;16.922;2023-06-14T05:06:38;100851.59;;;14.09;99.69
77110;BME280;66062;52.464;16.922;2023-06-14T05:09:04;100847.16;;;14.00;99.58
77110;BME280;66062;52.464;16.922;2023-06-14T05:11:30;100838.00;;;14.10;99.33
77110;BME280;66062;52.464;16.922;2023-06-14T05:13:55;100837.84;;;14.12;100.00
77110;BME280;66062;52.464;16.922;2023-06-14T05:16:23;100844.59;;;14.16;100.00
77110;BME280;66062;52.464;16.922;2023-06-14T05:18:50;100843.53;;;14.09;100.00
77110;BME280;66062;52.464;16.922;2023-06-14T05:21:17;100856.34;;;13.97;100.00
77110;BME280;66062;52.464;16.922;2023-06-14T05:23:44;100852.06;;;13.87;100.00
77110;BME280;66062;52.464;16.922;2023-06-14T05:26:10;100856.06;;;14.00;100.00
77110;BME280;66062;52.464;16.922;2023-06-14T05:28:36;100856.22;;;13.99;100.00
77110;BME280;66062;52.464;16.922;2023-06-14T05:31:01;100857.44;;;13.87;100.00
77110;BME280;66062;52.464;16.922;2023-06-14T05:33:27;100861.06;;;13.78;100.00
77110;BME280;66062;52.464;16.922;2023-06-14T05:35:52;100868.09;;;13.79;100.00
77110;BME280;66062;52.464;16.922;2023-06-14T05:38:18;100862.31;;;13.65;100.00
77110;BME280;66062;52.464;16.922;2023-06-14T05:40:43;100870.84;;;13.87;100.00
77110;BME280;66062;52.464;16.922;2023-06-14T05:43:09;100871.72;;;13.69;100.00
77110;BME280;66062;52.464;16.922;2023-06-14T05:45:35;100875.00;;;13.63;100.00
77110;BME280;66062;52.464;16.922;2023-06-14T05:48:02;100871.72;;;13.69;100.00
77110;BME280;66062;52.464;16.922;2023-06-14T05:50:27;100870.50;;;13.64;100.00
77110;BME280;66062;52.464;16.922;2023-06-14T05:52:53;100876.69;;;13.82;100.00
77110;BME280;66062;52.464;16.922;2023-06-14T05:55:19;100873.84;;;13.84;100.00
77110;BME280;66062;52.464;16.922;2023-06-14T05:57:45;100878.69;;;13.80;100.00
77110;BME280;66062;52.464;16.922;2023-06-14T06:00:11;100876.97;;;13.97;100.00
77110;BME280;66062;52.464;16.922;2023-06-14T06:02:40;100880.31;;;13.91;100.00
77110;BME280;66062;52.464;16.922;2023-06-14T06:05:06;100886.72;;;13.98;100.00
77110;BME280;66062;52.464;16.922;2023-06-14T06:07:32;100883.97;;;13.90;100.00
77110;BME280;66062;52.464;16.922;2023-06-14T06:09:57;100883.28;;;13.88;100.00
77110;BME280;66062;52.464;16.922;2023-06-14T06:12:23;100888.19;;;13.92;100.00
77110;BME280;66062;52.464;16.922;2023-06-14T06:14:48;100888.34;;;13.91;100.00
77110;BME280;66062;52.464;16.922;2023-06-14T06:17:14;100889.56;;;13.96;100.00
77110;BME280;66062;52.464;16.922;2023-06-14T06:19:39;100896.31;;;14.00;100.00
77110;BME280;66062;52.464;16.922;2023-06-14T06:22:05;100902.16;;;13.96;100.00
77110;BME280;66062;52.464;16.922;2023-06-14T06:24:32;100894.47;;;14.01;100.00
77110;BME280;66062;52.464;16.922;2023-06-14T06:26:57;100893.25;;;13.95;100.00
77110;BME280;66062;52.464;16.922;2023-06-14T06:29:22;100889.94;;;14.01;100.00
77110;BME280;66062;52.464;16.922;2023-06-14T06:31:48;100892.63;;;14.01;100.00
77110;BME280;66062;52.464;16.922;2023-06-14T06:34:13;100892.69;;;14.09;100.00
77110;BME280;66062;52.464;16.922;2023-06-14T06:36:39;100900.69;;;14.01;100.00
77110;BME280;66062;52.464;16.922;2023-06-14T06:39:04;100901.06;;;14.06;100.00
77110;BME280;66062;52.464;16.922;2023-06-14T06:41:37;100886.22;;;14.20;100.00
77110;BME280;66062;52.464;16.922;2023-06-14T06:44:05;100887.59;;;14.42;100.00
77110;BME280;66062;52.464;16.922;2023-06-14T06:46:31;100892.28;;;14.40;100.00
77110;BME280;66062;52.464;16.922;2023-06-14T06:48:57;100893.22;;;14.57;100.00
77110;BME280;66062;52.464;16.922;2023-06-14T06:51:23;100891.22;;;14.59;100.00
77110;BME280;66062;52.464;16.922;2023-06-14T06:53:53;100906.81;;;14.55;100.00
77110;BME280;66062;52.464;16.922;2023-06-14T06:56:18;100898.97;;;14.62;100.00
77110;BME280;66062;52.464;16.922;2023-06-14T06:58:45;100903.25;;;14.46;100.00
77110;BME280;66062;52.464;16.922;2023-06-14T07:01:10;100911.66;;;14.51;100.00
77110;BME280;66062;52.464;16.922;2023-06-14T07:03:36;100901.59;;;14.53;100.00
77110;BME280;66062;52.464;16.922;2023-06-14T07:06:02;100906.66;;;14.57;100.00
77110;BME280;66062;52.464;16.922;2023-06-14T07:08:27;100917.88;;;14.34;100.00
77110;BME280;66062;52.464;16.922;2023-06-14T07:10:53;100912.38;;;14.36;100.00
77110;BME280;66062;52.464;16.922;2023-06-14T07:13:18;100912.66;;;14.50;100.00
77110;BME280;66062;52.464;16.922;2023-06-14T07:15:45;100921.25;;;14.54;100.00
77110;BME280;66062;52.464;16.922;2023-06-14T07:18:10;100917.50;;;14.47;100.00
77110;BME280;66062;52.464;16.922;2023-06-14T07:20:35;100917.44;;;14.65;100.00
77110;BME280;66062;52.464;16.922;2023-06-14T07:23:03;100921.00;;;14.73;100.00
77110;BME280;66062;52.464;16.922;2023-06-14T07:25:29;100919.91;;;14.84;100.00
77110;BME280;66062;52.464;16.922;2023-06-14T07:27:54;100913.09;;;14.97;100.00
77110;BME280;66062;52.464;16.922;2023-06-14T07:30:20;100916.63;;;14.98;100.00
77110;BME280;66062;52.464;16.922;2023-06-14T07:32:46;100917.56;;;14.89;100.00
77110;BME280;66062;52.464;16.922;2023-06-14T07:35:11;100915.75;;;15.23;96.89
77110;BME280;66062;52.464;16.922;2023-06-14T07:37:36;100919.94;;;15.26;99.82
77110;BME280;66062;52.464;16.922;2023-06-14T07:40:02;100928.41;;;15.47;99.42
77110;BME280;66062;52.464;16.922;2023-06-14T07:42:33;100923.31;;;15.78;97.19
77110;BME280;66062;52.464;16.922;2023-06-14T07:44:59;100919.63;;;15.79;94.06
77110;BME280;66062;52.464;16.922;2023-06-14T07:47:24;100916.75;;;15.97;93.77
77110;BME280;66062;52.464;16.922;2023-06-14T07:49:50;100919.13;;;16.24;92.26
77110;BME280;66062;52.464;16.922;2023-06-14T07:52:15;100920.13;;;16.39;93.52
77110;BME280;66062;52.464;16.922;2023-06-14T07:54:41;100927.19;;;16.16;88.45
77110;BME280;66062;52.464;16.922;2023-06-14T07:57:06;100921.13;;;16.38;89.20
77110;BME280;66062;52.464;16.922;2023-06-14T07:59:32;100916.09;;;15.95;92.18
77110;BME280;66062;52.464;16.922;2023-06-14T08:01:58;100913.88;;;16.31;89.05
77110;BME280;66062;52.464;16.922;2023-06-14T08:04:24;100913.41;;;16.27;92.26
77110;BME280;66062;52.464;16.922;2023-06-14T08:06:50;100914.88;;;16.54;86.92
77110;BME280;66062;52.464;16.922;2023-06-14T08:09:16;100912.00;;;16.72;85.97
77110;BME280;66062;52.464;16.922;2023-06-14T08:11:41;100908.16;;;17.13;83.91
77110;BME280;66062;52.464;16.922;2023-06-14T08:14:08;100905.44;;;16.74;84.42
77110;BME280;66062;52.464;16.922;2023-06-14T08:16:33;100902.91;;;16.56;82.80
77110;BME280;66062;52.464;16.922;2023-06-14T08:18:59;100900.75;;;16.68;83.09
77110;BME280;66062;52.464;16.922;2023-06-14T08:21:24;100905.44;;;16.74;79.98
77110;BME280;66062;52.464;16.922;2023-06-14T08:23:54;100902.81;;;17.05;76.44
77110;BME280;66062;52.464;16.922;2023-06-14T08:26:20;100901.03;;;16.81;83.24
77110;BME280;66062;52.464;16.922;2023-06-14T08:28:46;100909.28;;;16.88;83.69
77110;BME280;66062;52.464;16.922;2023-06-14T08:31:11;100903.53;;;17.30;81.18
77110;BME280;66062;52.464;16.922;2023-06-14T08:33:37;100903.66;;;17.05;79.98
77110;BME280;66062;52.464;16.922;2023-06-14T08:36:04;100909.69;;;17.07;75.99
77110;BME280;66062;52.464;16.922;2023-06-14T08:38:29;100903.03;;;17.65;73.83
77110;BME280;66062;52.464;16.922;2023-06-14T08:40:57;100897.94;;;17.39;72.24
77110;BME280;66062;52.464;16.922;2023-06-14T08:43:22;100910.25;;;17.95;71.89
77110;BME280;66062;52.464;16.922;2023-06-14T08:45:48;100913.75;;;18.42;73.89
77110;BME280;66062;52.464;16.922;2023-06-14T08:48:18;100918.53;;;17.94;71.61
77110;BME280;66062;52.464;16.922;2023-06-14T08:50:46;100922.31;;;18.68;70.00
77110;BME280;66062;52.464;16.922;2023-06-14T08:53:14;100922.03;;;18.03;67.06
77110;BME280;66062;52.464;16.922;2023-06-14T08:55:45;100918.63;;;19.63;62.21
77110;BME280;66062;52.464;16.922;2023-06-14T08:58:11;100916.88;;;21.03;56.73
77110;BME280;66062;52.464;16.922;2023-06-14T09:00:40;100916.25;;;21.96;55.71
77110;BME280;66062;52.464;16.922;2023-06-14T09:03:06;100899.75;;;23.41;51.56
77110;BME280;66062;52.464;16.922;2023-06-14T09:05:35;100913.38;;;22.44;53.48
77110;BME280;66062;52.464;16.922;2023-06-14T09:08:01;100902.31;;;23.23;53.40
77110;BME280;66062;52.464;16.922;2023-06-14T09:10:27;100895.69;;;24.26;47.57
77110;BME280;66062;52.464;16.922;2023-06-14T09:12:52;100897.47;;;24.63;46.39
77110;BME280;66062;52.464;16.922;2023-06-14T09:15:18;100901.16;;;23.06;50.85
77110;BME280;66062;52.464;16.922;2023-06-14T09:17:43;100904.22;;;23.73;49.94
77110;BME280;66062;52.464;16.922;2023-06-14T09:20:09;100896.97;;;23.92;47.43
77110;BME280;66062;52.464;16.922;2023-06-14T09:22:36;100908.06;;;23.59;49.18
77110;BME280;66062;52.464;16.922;2023-06-14T09:25:02;100906.38;;;23.65;48.66
77110;BME280;66062;52.464;16.922;2023-06-14T09:27:28;100896.38;;;24.15;46.75
77110;BME280;66062;52.464;16.922;2023-06-14T09:29:54;100890.66;;;26.05;43.71
77110;BME280;66062;52.464;16.922;2023-06-14T09:32:23;100893.47;;;26.75;40.42
77110;BME280;66062;52.464;16.922;2023-06-14T09:34:48;100898.34;;;25.85;45.12
77110;BME280;66062;52.464;16.922;2023-06-14T09:37:30;100895.69;;;23.95;48.73
77110;BME280;66062;52.464;16.922;2023-06-14T09:39:57;100881.00;;;25.61;41.62
77110;BME280;66062;52.464;16.922;2023-06-14T09:42:23;100877.31;;;23.83;44.77
77110;BME280;66062;52.464;16.922;2023-06-14T09:44:55;100872.69;;;24.40;46.24
77110;BME280;66062;52.464;16.922;2023-06-14T09:47:21;100869.69;;;25.58;40.66
77110;BME280;66062;52.464;16.922;2023-06-14T09:49:47;100861.94;;;28.59;36.60
77110;BME280;66062;52.464;16.922;2023-06-14T09:52:20;100865.41;;;28.88;35.10
77110;BME280;66062;52.464;16.922;2023-06-14T09:54:47;100861.91;;;29.63;32.06
77110;BME280;66062;52.464;16.922;2023-06-14T09:57:20;100858.13;;;27.37;37.03
77110;BME280;66062;52.464;16.922;2023-06-14T09:59:47;100852.22;;;27.16;37.03
77110;BME280;66062;52.464;16.922;2023-06-14T10:02:25;100862.66;;;26.56;38.06
77110;BME280;66062;52.464;16.922;2023-06-14T10:05:11;100857.41;;;25.48;40.35
77110;BME280;66062;52.464;16.922;2023-06-14T10:07:50;100852.75;;;26.20;37.68
77110;BME280;66062;52.464;16.922;2023-06-14T10:10:17;100846.19;;;27.71;35.72
77110;BME280;66062;52.464;16.922;2023-06-14T10:12:43;100837.84;;;28.66;33.74
77110;BME280;66062;52.464;16.922;2023-06-14T10:15:10;100845.41;;;26.56;37.38
77110;BME280;66062;52.464;16.922;2023-06-14T10:17:50;100843.00;;;26.71;37.22
77110;BME280;66062;52.464;16.922;2023-06-14T10:23:16;100834.25;;;28.82;32.39
77110;BME280;66062;52.464;16.922;2023-06-14T10:25:42;100845.72;;;26.94;36.23
77110;BME280;66062;52.464;16.922;2023-06-14T10:28:18;100837.53;;;26.48;36.76
77110;BME280;66062;52.464;16.922;2023-06-14T10:33:32;100840.16;;;25.00;39.38
77110;BME280;66062;52.464;16.922;2023-06-14T10:36:23;100830.13;;;24.57;40.70
77110;BME280;66062;52.464;16.922;2023-06-14T10:39:01;100829.69;;;24.17;41.94
77110;BME280;66062;52.464;16.922;2023-06-14T10:41:29;100829.66;;;24.60;40.72
77110;BME280;66062;52.464;16.922;2023-06-14T10:46:39;100832.41;;;24.11;43.26
77110;BME280;66062;52.464;16.922;2023-06-14T10:49:05;100837.56;;;23.31;44.91
77110;BME280;66062;52.464;16.922;2023-06-14T10:51:39;100836.47;;;22.94;46.51
77110;BME280;66062;52.464;16.922;2023-06-14T10:54:14;100839.38;;;22.99;46.06
77110;BME280;66062;52.464;16.922;2023-06-14T10:56:47;100838.19;;;22.56;47.83
77110;BME280;66062;52.464;16.922;2023-06-14T10:59:13;100838.00;;;22.71;47.77
77110;BME280;66062;52.464;16.922;2023-06-14T11:01:46;100838.81;;;22.84;48.63
77110;BME280;66062;52.464;16.922;2023-06-14T11:04:17;100836.09;;;23.98;44.72
77110;BME280;66062;52.464;16.922;2023-06-14T11:06:48;100832.06;;;24.32;43.71
77110;BME280;66062;52.464;16.922;2023-06-14T11:09:51;100829.22;;;25.00;42.03
77110;BME280;66062;52.464;16.922;2023-06-14T11:12:26;100833.28;;;25.27;41.24
77110;BME280;66062;52.464;16.922;2023-06-14T11:14:53;100822.16;;;24.38;43.41
77110;BME280;66062;52.464;16.922;2023-06-14T11:17:18;100833.94;;;24.07;43.94
77110;BME280;66062;52.464;16.922;2023-06-14T11:19:44;100829.34;;;24.32;43.60
77110;BME280;66062;52.464;16.922;2023-06-14T11:22:09;100824.06;;;24.06;43.93
77110;BME280;66062;52.464;16.922;2023-06-14T11:24:35;100822.84;;;24.69;42.83
77110;BME280;66062;52.464;16.922;2023-06-14T11:27:00;100813.53;;;25.43;40.37
77110;BME280;66062;52.464;16.922;2023-06-14T11:29:29;100813.22;;;25.03;40.84
77110;BME280;66062;52.464;16.922;2023-06-14T11:31:54;100812.53;;;25.08;41.28
77110;BME280;66062;52.464;16.922;2023-06-14T11:34:20;100809.53;;;24.98;40.97
77110;BME280;66062;52.464;16.922;2023-06-14T11:36:45;100806.31;;;24.83;40.45
77110;BME280;66062;52.464;16.922;2023-06-14T11:39:12;100816.06;;;24.36;40.36
77110;BME280;66062;52.464;16.922;2023-06-14T11:41:41;100808.41;;;24.44;40.08
77110;BME280;66062;52.464;16.922;2023-06-14T11:44:08;100810.75;;;23.66;43.28
77110;BME280;66062;52.464;16.922;2023-06-14T11:46:34;100805.78;;;23.19;42.25
77110;BME280;66062;52.464;16.922;2023-06-14T11:49:01;100808.78;;;22.13;45.67
77110;BME280;66062;52.464;16.922;2023-06-14T11:51:33;100813.06;;;22.60;45.33
77110;BME280;66062;52.464;16.922;2023-06-14T11:53:59;100800.31;;;23.19;44.52
77110;BME280;66062;52.464;16.922;2023-06-14T11:56:25;100798.38;;;22.88;46.29
77110;BME280;66062;52.464;16.922;2023-06-14T11:58:52;100792.22;;;23.06;44.17
77110;BME280;66062;52.464;16.922;2023-06-14T12:01:21;100798.03;;;23.16;43.52
77110;BME280;66062;52.464;16.922;2023-06-14T12:03:49;100800.06;;;22.76;45.62
77110;BME280;66062;52.464;16.922;2023-06-14T12:06:14;100792.47;;;22.13;47.00
77110;BME280;66062;52.464;16.922;2023-06-14T12:08:43;100787.88;;;22.01;46.13
77110;BME280;66062;52.464;16.922;2023-06-14T12:11:11;100799.34;;;21.63;48.02
77110;BME280;66062;52.464;16.922;2023-06-14T12:13:38;100785.34;;;21.86;46.16
77110;BME280;66062;52.464;16.922;2023-06-14T12:16:07;100785.31;;;21.53;46.48
77110;BME280;66062;52.464;16.922;2023-06-14T12:18:34;100780.72;;;22.39;45.52
77110;BME280;66062;52.464;16.922;2023-06-14T12:21:00;100783.69;;;22.25;45.74
77110;BME280;66062;52.464;16.922;2023-06-14T12:23:45;100781.69;;;22.58;43.82
77110;BME280;66062;52.464;16.922;2023-06-14T12:26:15;100784.88;;;22.55;42.32
77110;BME280;66062;52.464;16.922;2023-06-14T12:28:42;100785.66;;;22.69;42.29
77110;BME280;66062;52.464;16.922;2023-06-14T12:31:12;100777.44;;;22.88;41.85
77110;BME280;66062;52.464;16.922;2023-06-14T12:33:38;100772.97;;;23.45;40.99
77110;BME280;66062;52.464;16.922;2023-06-14T12:36:04;100777.47;;;23.82;41.13
77110;BME280;66062;52.464;16.922;2023-06-14T12:38:32;100777.19;;;23.34;40.88
77110;BME280;66062;52.464;16.922;2023-06-14T12:40:57;100781.28;;;23.81;40.69
77110;BME280;66062;52.464;16.922;2023-06-14T12:43:23;100772.63;;;24.34;38.51